Terminal Aerodrome Forecast
Issued by NWS Shreveport, LA

Home | Current Version | Previous Version | Text Only | Print | Product List | Glossary On
Versions: 1 2 3 4 5 6 7 8 9 10 11 12 13 14
000
FTUS44 KSHV 222359
TAFTXK
TAF
KTXK 222359Z 2300/2324 32015G25KT P6SM BKN030 OVC050
     FM230600 32012G20KT P6SM SCT035 SCT050
     FM230900 32012KT P6SM SKC
     FM231400 32010KT P6SM SKC=

USA.gov is the U.S. government's official web portal to all federal, state and local government web resources and services.